Quincy

Airport
ICAO code: 
KUIN
Summary
ICAO Region: 
NAM
Territory: 
Location: 
Quincy, Illinois,
Coordinates: 
Aerial View: 
39° 56' 33.718" N, 91° 11' 40.571" W
Metar
Observation
KUIN 252002Z AUTO 15013G23KT 10SM BKN026 BKN032 OVC040 23/19 A2971 RMK AO2 T02330189
Station
Quincy, Quincy Regional-Baldwin Field Airport
Date/Time
2022-05-25 20:02:00
Wind direction
150°
Wind speed
13 kts
Lowest cloud amount
broken clouds
Temperature
23.3°C
Dew point
18.9°C
Humidity
76%
Weather condition
n/a

Description

Regional Airport located 12 nm east of Quincy, Illinois, USA.

Climatology

Humid continental climate (Köppen climate classification Dfa) - characterized by four seasons: cold, windy, snowy winters, mild springs, hot, humid summers, and crisp and relatively short autumns. Precipitation reaches its lowest in January and February and peaks in summer and latter half of spring.

Runways

Designator Length Width Surface Rops
13/31 1562 46 ASP Yes/Yes
18/36 1646 46 CON Yes/Yes
4/22 2163 46 PEM Yes/Yes
Airport map: 
Aerial View: 

Accidents and Serious Incidents at or in the vicinity of KUIN

SKYbrary Partners:

Safety knowledge contributed by: